Nearby METAR Reports

 

K6B9 - Skaneateles, New York, USA
Distance from station: SE 7mi, 12km
Updated: Sat, 21-May-2022 5:15pm EDT
Clear
Clear
 Wind from varies
Wind: varies 6 mph , 9 km/h
Temperature: 88°F , 31°C
Heat Index: 91°F , 33°C
Dew Point: 66°F , 19°C
Humidity: 49%
Barometer: 29.95 inHg , 1014.2 hPa
Clouds: Clear
Visibility: 10 miles , 16 km
2022/05/21 21:15 K6B9 212115Z AUTO VRB05KT 10SM CLR 31/19 A2995 RMK AO2
KSYR - Syracuse, New York, USA
Distance from station: ENE 24mi, 38km
Updated: Sat, 21-May-2022 4:54pm EDT
Mostly cloudy
Mostly cloudy
 Wind from N
Wind: N 16 mph , 26 km/h
Temperature: 81°F , 27°C
Heat Index: 83°F , 28°C
Dew Point: 66°F , 19°C
Humidity: 62%
Barometer: 29.93 inHg , 1013.5 hPa
Clouds: Mostly cloudy
Visibility: 10 miles , 16 km
Cloud details: Few Clouds 4000 ft
Partly cloudy 6500 ft
Mostly cloudy 9000 ft
Mostly cloudy 20000 ft
2022/05/21 20:54 KSYR 212054Z 35014KT 10SM FEW040 SCT065 BKN090 BKN200 27/19 A2993 RMK AO2 WSHFT 2033 RAE03 SLP129 TS MOVD NE P0000 60001 T02670189 55000
 
KFZY - Fulton, New York, USA
Distance from station: NNE 26mi, 41km
Updated: Sat, 21-May-2022 4:54pm EDT
Clear
Clear
 Wind from calm
Wind: Calm
Temperature: 77°F , 25°C
Dew Point: 63°F , 17°C
Humidity: 61%
Barometer: 29.94 inHg , 1013.9 hPa
Clouds: Clear
Visibility: 10 miles , 16 km
2022/05/21 20:54 KFZY 212054Z AUTO 00000KT 10SM CLR 25/17 A2994 RMK AO2 RAE1956 SLP137 P0000 60000 T02500172 51009
KN03 - Cortland, New York, USA
Distance from station: SSE 32mi, 51km
Updated: Sat, 21-May-2022 5:15pm EDT
Partly cloudy
Partly cloudy
 Wind from WSW
Wind: WSW 6 mph , 9 km/h
Temperature: 86°F , 30°C
Heat Index: 87°F , 31°C
Dew Point: 63°F , 17°C
Humidity: 46%
Barometer: 29.97 inHg , 1014.9 hPa
Clouds: Partly cloudy
Visibility: 10 miles , 16 km
Cloud details: Partly cloudy 8000 ft
2022/05/21 21:15 KN03 212115Z AUTO 24005KT 10SM SCT080 30/17 A2997 RMK AO2
 
KSDC - Williamson/Sodus, New York, USA
Distance from station: WNW 34mi, 54km
Updated: Sat, 21-May-2022 5:35pm EDT
Clear
Clear
 Wind from NW
Wind: NW 5 mph , 7 km/h
Temperature: 79°F , 26°C
Dew Point: 55°F , 13°C
Humidity: 45%
Barometer: 29.95 inHg , 1014.2 hPa
Clouds: Clear
Visibility: 10 miles , 16 km
2022/05/21 21:35 KSDC 212135Z AUTO 31004KT 10SM CLR 26/13 A2995 RMK AO2
KPEO - Penn Yan, New York, USA
Distance from station: SW 35mi, 57km
Updated: Sat, 21-May-2022 4:53pm EDT
Clear
Clear
 Wind from SSW
Wind: SSW 9 mph , 15 km/h
Temperature: 91°F , 33°C
Dew Point: 61°F , 16°C
Humidity: 36%
Barometer: 29.94 inHg , 1013.9 hPa
Clouds: Clear
Visibility: 10 miles , 16 km
2022/05/21 20:53 KPEO 212053Z AUTO 20008KT 10SM CLR 33/16 A2994 RMK AO2 SLP128 T03330156 58010
 
KITH - Ithaca/Tompkins, New York, USA
Distance from station: S 37mi, 59km
Updated: Sat, 21-May-2022 4:56pm EDT
Partly cloudy
Partly cloudy
 Wind from WSW
Wind: WSW 8 mph , 13 km/h
Temperature: 88°F , 31°C
Heat Index: 90°F , 32°C
Dew Point: 64°F , 18°C
Humidity: 46%
Barometer: 29.97 inHg , 1014.9 hPa
Clouds: Partly cloudy
Visibility: 10 miles , 16 km
Cloud details: Partly cloudy 5000 ft
2022/05/21 20:56 KITH 212056Z 24007KT 10SM SCT050 31/18 A2997 RMK AO2 SLP140 T03110178 55004 $
KVGC - Hamilton Municip, New York, USA
Distance from station: E 50mi, 80km
Updated: Sat, 21-May-2022 5:15pm EDT
Partly cloudy
Partly cloudy
 Wind from SSW
Wind: SSW 5 mph , 7 km/h
Temperature: 88°F , 31°C
Heat Index: 88°F , 31°C
Dew Point: 61°F , 16°C
Humidity: 40%
Barometer: 29.97 inHg , 1014.9 hPa
Clouds: Partly cloudy
Visibility: 7 miles , 11 km
Cloud details: Partly cloudy 6000 ft
Partly cloudy 7500 ft
Partly cloudy 8500 ft
2022/05/21 21:15 KVGC 212115Z AUTO 20004KT 7SM SCT060 SCT075 SCT085 31/16 A2997 RMK AO2